createdAt,value
2023-05-09T04:06:06.841Z,11.76
2023-05-09T04:09:09.878Z,11.76
2023-05-09T04:12:14.836Z,11.47
2023-05-09T04:15:17.730Z,11.51
2023-05-09T04:18:20.330Z,11.48
2023-05-09T04:21:22.704Z,11.61
2023-05-09T04:24:24.954Z,11.64
2023-05-09T04:27:28.146Z,11.65
2023-05-09T04:30:30.816Z,11.63
2023-05-09T04:33:33.325Z,11.76
2023-05-09T04:36:36.251Z,11.66
2023-05-09T04:39:39.098Z,11.73
2023-05-09T04:42:42.209Z,11.98
2023-05-09T04:45:45.580Z,11.99
2023-05-09T04:48:48.203Z,11.74
2023-05-09T04:51:53.407Z,12.01
2023-05-09T04:54:55.590Z,12.11
2023-05-09T04:57:58.231Z,12.01
2023-05-09T05:01:00.472Z,12.09
2023-05-09T05:04:02.933Z,12.02
2023-05-09T05:07:05.982Z,12.13
2023-05-09T05:10:09.623Z,12.15
2023-05-09T05:13:12.122Z,12.24
2023-05-09T05:16:16.294Z,12.26
2023-05-09T05:19:19.233Z,12.46
2023-05-09T05:22:21.625Z,12.59
2023-05-09T05:25:24.458Z,12.75
2023-05-09T05:28:27.157Z,12.79
2023-05-09T05:31:29.371Z,12.78
2023-05-09T05:34:31.805Z,13.05
2023-05-09T05:37:33.972Z,13.19
2023-05-09T05:40:36.530Z,13.32
2023-05-09T05:43:39.180Z,13.33
2023-05-09T05:46:42.299Z,13.52
2023-05-09T05:49:45.108Z,13.65
2023-05-09T05:52:47.717Z,13.75
2023-05-09T05:55:50.366Z,13.80
2023-05-09T05:58:53.957Z,13.80
2023-05-09T06:01:56.801Z,13.85
2023-05-09T06:04:59.474Z,14.13
2023-05-09T06:08:01.703Z,13.97
2023-05-09T06:11:05.870Z,14.22
2023-05-09T06:14:12.946Z,14.13
2023-05-09T06:17:15.722Z,14.20
2023-05-09T06:20:18.107Z,14.33
2023-05-09T06:23:22.213Z,14.58
2023-05-09T06:26:24.367Z,14.60
2023-05-09T06:29:26.795Z,14.63
2023-05-09T06:32:28.953Z,14.70
2023-05-09T06:35:31.359Z,14.75
2023-05-09T06:38:34.927Z,14.58
2023-05-09T06:41:37.382Z,14.64
2023-05-09T06:44:39.496Z,14.85
2023-05-09T06:47:41.929Z,14.86
2023-05-09T06:50:44.100Z,14.77
2023-05-09T06:53:46.599Z,15.01
2023-05-09T06:56:48.803Z,14.97
2023-05-09T06:59:51.173Z,15.11
2023-05-09T07:02:53.372Z,14.96
2023-05-09T07:06:01.894Z,15.10
2023-05-09T07:09:04.440Z,15.23
2023-05-09T07:12:07.046Z,15.39
2023-05-09T07:15:09.963Z,15.32
2023-05-09T07:18:12.563Z,15.55
2023-05-09T07:21:14.683Z,15.66
2023-05-09T07:24:17.068Z,15.59
2023-05-09T07:27:19.197Z,15.48
2023-05-09T07:30:21.773Z,15.67
2023-05-09T07:33:24.045Z,15.51
2023-05-09T07:36:26.460Z,15.70
2023-05-09T07:39:28.534Z,15.82
2023-05-09T07:42:32.550Z,15.70
2023-05-09T07:45:34.811Z,15.71
2023-05-09T07:48:37.299Z,15.65
2023-05-09T07:51:39.476Z,15.66
2023-05-09T07:54:41.892Z,15.84
2023-05-09T07:57:44.001Z,15.86
2023-05-09T08:00:46.552Z,16.02
2023-05-09T08:03:49.161Z,16.18
2023-05-09T08:06:51.458Z,16.21
2023-05-09T08:09:53.854Z,16.25
2023-05-09T08:12:56.560Z,16.46
2023-05-09T08:15:59.283Z,16.51
2023-05-09T08:19:01.444Z,16.48
2023-05-09T08:22:04.252Z,16.59
2023-05-09T08:25:10.436Z,16.67
2023-05-09T08:28:12.892Z,16.63
2023-05-09T08:31:15.433Z,16.66
2023-05-09T08:34:17.811Z,16.66
2023-05-09T08:37:19.905Z,16.68
2023-05-09T08:40:22.510Z,16.75
2023-05-09T08:43:25.015Z,16.83
2023-05-09T08:46:36.471Z,16.83
2023-05-09T08:49:40.079Z,16.91
2023-05-09T08:52:42.726Z,16.78
2023-05-09T08:55:45.104Z,16.93
2023-05-09T08:58:47.646Z,17.00
2023-05-09T09:01:51.289Z,16.93
2023-05-09T09:04:55.118Z,16.95
2023-05-09T09:07:58.525Z,17.05
2023-05-09T09:11:01.035Z,17.11
2023-05-09T09:14:12.924Z,17.13
2023-05-09T09:17:19.610Z,17.06
2023-05-09T09:20:22.896Z,17.17
2023-05-09T09:23:28.922Z,17.32
2023-05-09T09:26:31.742Z,17.18
2023-05-09T09:29:34.437Z,17.20
2023-05-09T09:32:37.729Z,17.18
2023-05-09T09:35:41.052Z,17.22
2023-05-09T09:38:43.887Z,17.47
2023-05-09T09:41:46.361Z,17.47
2023-05-09T09:44:56.437Z,17.56
2023-05-09T09:47:58.886Z,17.45
2023-05-09T09:51:10.532Z,17.33
2023-05-09T09:54:13.366Z,17.38
2023-05-09T09:57:34.114Z,17.42
2023-05-09T10:00:37.010Z,17.49
2023-05-09T10:03:42.911Z,17.49
2023-05-09T10:07:05.931Z,17.62
2023-05-09T10:10:09.053Z,17.70
2023-05-09T10:13:12.492Z,17.69
2023-05-09T10:16:15.076Z,17.70
2023-05-09T10:19:19.789Z,17.63
2023-05-09T10:22:23.750Z,17.62
2023-05-09T10:25:33.529Z,17.64
2023-05-09T10:28:40.322Z,17.79
2023-05-09T10:31:44.370Z,17.66
2023-05-09T10:34:52.435Z,17.64
2023-05-09T10:37:59.332Z,17.60
2023-05-09T10:41:02.291Z,17.59
2023-05-09T10:44:04.566Z,17.49
2023-05-09T10:47:07.755Z,17.54
2023-05-09T10:50:13.207Z,17.70
2023-05-09T10:53:17.118Z,17.74
2023-05-09T10:56:38.613Z,17.71
2023-05-09T10:59:43.007Z,17.60
2023-05-09T11:03:08.439Z,17.61
2023-05-09T11:06:54.000Z,17.69
2023-05-09T11:10:14.863Z,17.81
2023-05-09T11:13:25.883Z,17.85
2023-05-09T11:16:28.276Z,17.89
2023-05-09T11:19:53.808Z,17.73
2023-05-09T11:22:57.357Z,17.80
2023-05-09T11:26:08.338Z,17.91
2023-05-09T11:29:10.544Z,18.10
2023-05-09T11:32:16.255Z,17.89
2023-05-09T11:35:21.261Z,17.78
2023-05-09T11:38:23.732Z,17.79
2023-05-09T11:41:27.400Z,17.94
2023-05-09T11:44:33.305Z,17.98
2023-05-09T11:47:37.586Z,18.03
2023-05-09T11:50:41.560Z,17.96
2023-05-09T11:53:46.712Z,17.94
2023-05-09T11:56:49.226Z,18.01
2023-05-09T11:59:51.451Z,18.01
2023-05-09T12:02:54.291Z,18.03
2023-05-09T12:05:56.991Z,18.12
2023-05-09T12:08:59.264Z,18.02
2023-05-09T12:12:01.693Z,18.10
2023-05-09T12:15:07.296Z,18.25
2023-05-09T12:18:09.730Z,18.19
2023-05-09T12:21:12.577Z,18.08
2023-05-09T12:24:20.619Z,18.20
2023-05-09T12:27:23.442Z,18.16
2023-05-09T12:30:26.234Z,18.11
2023-05-09T12:33:29.812Z,18.12
2023-05-09T12:36:35.326Z,18.14
2023-05-09T12:39:37.748Z,18.24
2023-05-09T12:42:44.348Z,18.39
2023-05-09T12:45:52.873Z,18.42
2023-05-09T12:48:55.585Z,18.36
2023-05-09T12:52:01.656Z,18.34
2023-05-09T12:55:14.955Z,18.29
2023-05-09T12:58:17.324Z,18.34
2023-05-09T13:01:21.296Z,18.26
2023-05-09T13:04:25.537Z,18.19
2023-05-09T13:07:27.946Z,18.11
2023-05-09T13:10:30.329Z,18.17
2023-05-09T13:13:33.024Z,18.20
2023-05-09T13:16:35.197Z,18.29
2023-05-09T13:19:40.166Z,18.30
2023-05-09T13:22:45.753Z,18.34
2023-05-09T13:25:48.260Z,18.38
2023-05-09T13:28:50.525Z,18.59
2023-05-09T13:31:52.917Z,18.74
2023-05-09T13:34:55.103Z,18.97
2023-05-09T13:37:58.791Z,18.95
2023-05-09T13:41:02.146Z,19.08
2023-05-09T13:44:04.750Z,19.05
2023-05-09T13:47:07.802Z,19.04
2023-05-09T13:50:10.905Z,19.17
2023-05-09T13:53:15.193Z,19.14
2023-05-09T13:56:17.605Z,19.11
2023-05-09T13:59:20.060Z,19.18
2023-05-09T14:02:24.479Z,19.21
2023-05-09T14:05:27.007Z,19.19
2023-05-09T14:08:29.592Z,19.04
2023-05-09T14:11:32.077Z,18.90
2023-05-09T14:14:34.182Z,18.78
2023-05-09T14:17:36.825Z,18.76
2023-05-09T14:20:40.610Z,18.70
2023-05-09T14:23:43.618Z,18.77
2023-05-09T14:26:46.518Z,18.69
2023-05-09T14:29:49.302Z,18.60
2023-05-09T14:32:51.385Z,18.67
2023-05-09T14:35:53.828Z,18.80
2023-05-09T14:38:55.988Z,18.93
2023-05-09T14:41:58.406Z,18.98
2023-05-09T14:45:00.530Z,18.97
2023-05-09T14:48:05.897Z,18.85
2023-05-09T14:51:08.228Z,18.87
2023-05-09T14:54:10.883Z,18.71
2023-05-09T14:57:13.245Z,18.59
2023-05-09T15:00:21.284Z,18.53
2023-05-09T15:03:24.256Z,18.65
2023-05-09T15:06:26.738Z,18.67
2023-05-09T15:09:28.911Z,18.74
2023-05-09T15:12:31.576Z,18.83
2023-05-09T15:15:33.830Z,18.85
2023-05-09T15:18:36.333Z,18.78
2023-05-09T15:21:38.571Z,18.81
2023-05-09T15:24:42.702Z,18.89
2023-05-09T15:27:44.912Z,18.86
2023-05-09T15:30:48.373Z,18.84
